KSLE/SLE METAR and TAF weather

Enter ICAO airport designator
Station Type Date Time Source
KSLE METAR 2021/09/25 11:56 UTC NOAA

KSLE 251156Z AUTO 18003KT 10SM CLR 15/11 A2987 RMK AO2 SLP112 T01500111 10189 20139 53002


Station Type Date Time Source
KSLE Decoded METAR 2021/09/25 11:56 UTC NOAA

SALEM MCNARY FIELD, OR, United States (KSLE) 44-54N 123-00W 59M
Sep 25, 2021 - 07:56 AM EDT / 2021.09.25 1156 UTC
Wind: from the S (180 degrees) at 3 MPH (3 KT):0
Visibility: 10 mile(s):0
Sky conditions: clear
Temperature: 59.0 F (15.0 C)
Dew Point: 52.0 F (11.1 C)
Relative Humidity: 77%
Pressure (altimeter): 29.87 in. Hg (1011 hPa)
Pressure tendency: 0.01 inches (0.2 hPa) higher than three hours ago
ob: KSLE 251156Z AUTO 18003KT 10SM CLR 15/11 A2987 RMK AO2 SLP112 T01500111 10189 20139 53002
cycle: 12

Station Type Date Time Source
KSLE TAF 2021/09/25 12:22 UTC NOAA

TAF KSLE 251120Z 2512/2612 00000KT P6SM SKC
FM252000 22006KT P6SM FEW250

Example: see airport list